sensor_id;sensor_type;location;lat;lon;timestamp;P1;durP1;ratioP1;P2;durP2;ratioP2
40198;SDS011;25906;43.536;26.068;2023-09-12T00:01:44;1.80;;;1.60;;
40198;SDS011;25906;43.536;26.068;2023-09-12T00:04:30;4.30;;;2.10;;
40198;SDS011;25906;43.536;26.068;2023-09-12T00:07:16;3.95;;;1.73;;
40198;SDS011;25906;43.536;26.068;2023-09-12T00:10:02;3.05;;;1.88;;
40198;SDS011;25906;43.536;26.068;2023-09-12T00:12:48;4.00;;;1.60;;
40198;SDS011;25906;43.536;26.068;2023-09-12T00:15:33;7.43;;;1.98;;
40198;SDS011;25906;43.536;26.068;2023-09-12T00:18:19;3.20;;;1.90;;
40198;SDS011;25906;43.536;26.068;2023-09-12T00:21:04;2.58;;;2.00;;
40198;SDS011;25906;43.536;26.068;2023-09-12T00:23:50;4.60;;;1.88;;
40198;SDS011;25906;43.536;26.068;2023-09-12T00:26:35;3.10;;;2.03;;
40198;SDS011;25906;43.536;26.068;2023-09-12T00:29:21;2.33;;;1.80;;
40198;SDS011;25906;43.536;26.068;2023-09-12T00:32:06;4.53;;;1.92;;
40198;SDS011;25906;43.536;26.068;2023-09-12T00:34:52;2.45;;;2.10;;
40198;SDS011;25906;43.536;26.068;2023-09-12T00:37:37;2.65;;;1.90;;
40198;SDS011;25906;43.536;26.068;2023-09-12T00:40:23;3.45;;;2.17;;
40198;SDS011;25906;43.536;26.068;2023-09-12T00:43:08;4.43;;;1.85;;
40198;SDS011;25906;43.536;26.068;2023-09-12T00:45:55;5.35;;;1.88;;
40198;SDS011;25906;43.536;26.068;2023-09-12T00:48:40;2.70;;;1.80;;
40198;SDS011;25906;43.536;26.068;2023-09-12T00:51:26;2.00;;;1.80;;
40198;SDS011;25906;43.536;26.068;2023-09-12T00:54:13;4.18;;;1.85;;
40198;SDS011;25906;43.536;26.068;2023-09-12T00:56:58;4.80;;;2.00;;
40198;SDS011;25906;43.536;26.068;2023-09-12T00:59:44;3.33;;;2.00;;
40198;SDS011;25906;43.536;26.068;2023-09-12T01:02:29;6.55;;;2.90;;
40198;SDS011;25906;43.536;26.068;2023-09-12T01:05:15;4.93;;;1.83;;
40198;SDS011;25906;43.536;26.068;2023-09-12T01:08:01;6.35;;;1.75;;
40198;SDS011;25906;43.536;26.068;2023-09-12T01:10:47;5.63;;;1.80;;
40198;SDS011;25906;43.536;26.068;2023-09-12T01:13:34;2.30;;;1.73;;
40198;SDS011;25906;43.536;26.068;2023-09-12T01:16:20;3.60;;;1.90;;
40198;SDS011;25906;43.536;26.068;2023-09-12T01:19:05;4.25;;;2.28;;
40198;SDS011;25906;43.536;26.068;2023-09-12T01:21:58;6.55;;;2.28;;
40198;SDS011;25906;43.536;26.068;2023-09-12T01:24:52;5.32;;;1.95;;
40198;SDS011;25906;43.536;26.068;2023-09-12T01:27:50;9.27;;;2.30;;
40198;SDS011;25906;43.536;26.068;2023-09-12T01:30:36;3.33;;;2.20;;
40198;SDS011;25906;43.536;26.068;2023-09-12T01:33:24;3.47;;;2.17;;
40198;SDS011;25906;43.536;26.068;2023-09-12T01:36:10;2.63;;;1.90;;
40198;SDS011;25906;43.536;26.068;2023-09-12T01:38:55;3.05;;;2.33;;
40198;SDS011;25906;43.536;26.068;2023-09-12T01:41:41;4.03;;;2.50;;
40198;SDS011;25906;43.536;26.068;2023-09-12T01:44:29;2.17;;;1.98;;
40198;SDS011;25906;43.536;26.068;2023-09-12T01:47:16;3.90;;;2.60;;
40198;SDS011;25906;43.536;26.068;2023-09-12T01:50:05;2.80;;;2.03;;
40198;SDS011;25906;43.536;26.068;2023-09-12T01:52:52;3.70;;;2.15;;
40198;SDS011;25906;43.536;26.068;2023-09-12T01:55:38;4.35;;;2.20;;
40198;SDS011;25906;43.536;26.068;2023-09-12T01:58:25;3.70;;;2.10;;
40198;SDS011;25906;43.536;26.068;2023-09-12T02:01:11;2.50;;;2.30;;
40198;SDS011;25906;43.536;26.068;2023-09-12T02:03:57;5.25;;;2.83;;
40198;SDS011;25906;43.536;26.068;2023-09-12T02:09:28;3.63;;;2.25;;
40198;SDS011;25906;43.536;26.068;2023-09-12T02:12:13;2.97;;;2.25;;
40198;SDS011;25906;43.536;26.068;2023-09-12T02:14:59;2.38;;;2.15;;
40198;SDS011;25906;43.536;26.068;2023-09-12T02:17:44;3.20;;;2.10;;
40198;SDS011;25906;43.536;26.068;2023-09-12T02:20:30;2.03;;;1.83;;
40198;SDS011;25906;43.536;26.068;2023-09-12T02:23:17;4.45;;;2.13;;
40198;SDS011;25906;43.536;26.068;2023-09-12T02:26:02;4.90;;;2.00;;
40198;SDS011;25906;43.536;26.068;2023-09-12T02:28:48;2.00;;;1.77;;
40198;SDS011;25906;43.536;26.068;2023-09-12T02:31:33;4.20;;;2.05;;
40198;SDS011;25906;43.536;26.068;2023-09-12T02:34:19;2.90;;;2.20;;
40198;SDS011;25906;43.536;26.068;2023-09-12T02:37:04;2.67;;;2.10;;
40198;SDS011;25906;43.536;26.068;2023-09-12T02:39:50;3.03;;;1.88;;
40198;SDS011;25906;43.536;26.068;2023-09-12T02:42:35;3.78;;;2.40;;
40198;SDS011;25906;43.536;26.068;2023-09-12T02:45:21;3.70;;;2.03;;
40198;SDS011;25906;43.536;26.068;2023-09-12T02:48:06;2.97;;;2.03;;
40198;SDS011;25906;43.536;26.068;2023-09-12T02:50:52;5.22;;;2.17;;
40198;SDS011;25906;43.536;26.068;2023-09-12T02:53:37;3.25;;;1.88;;
40198;SDS011;25906;43.536;26.068;2023-09-12T02:56:22;3.35;;;1.98;;
40198;SDS011;25906;43.536;26.068;2023-09-12T02:59:08;4.40;;;2.25;;
40198;SDS011;25906;43.536;26.068;2023-09-12T03:01:53;5.00;;;2.28;;
40198;SDS011;25906;43.536;26.068;2023-09-12T03:04:39;2.20;;;2.00;;
40198;SDS011;25906;43.536;26.068;2023-09-12T03:07:24;2.53;;;1.83;;
40198;SDS011;25906;43.536;26.068;2023-09-12T03:10:10;4.38;;;2.25;;
40198;SDS011;25906;43.536;26.068;2023-09-12T03:12:55;2.83;;;1.85;;
40198;SDS011;25906;43.536;26.068;2023-09-12T03:15:41;4.57;;;2.10;;
40198;SDS011;25906;43.536;26.068;2023-09-12T03:18:26;3.30;;;2.00;;
40198;SDS011;25906;43.536;26.068;2023-09-12T03:21:11;4.10;;;2.05;;
40198;SDS011;25906;43.536;26.068;2023-09-12T03:23:57;4.28;;;2.22;;
40198;SDS011;25906;43.536;26.068;2023-09-12T03:26:42;2.50;;;2.20;;
40198;SDS011;25906;43.536;26.068;2023-09-12T03:29:28;3.15;;;2.25;;
40198;SDS011;25906;43.536;26.068;2023-09-12T03:32:13;3.03;;;2.22;;
40198;SDS011;25906;43.536;26.068;2023-09-12T03:34:58;3.47;;;2.22;;
40198;SDS011;25906;43.536;26.068;2023-09-12T03:37:44;3.75;;;2.67;;
40198;SDS011;25906;43.536;26.068;2023-09-12T03:40:30;6.95;;;2.45;;
40198;SDS011;25906;43.536;26.068;2023-09-12T03:46:01;4.55;;;2.85;;
40198;SDS011;25906;43.536;26.068;2023-09-12T03:48:46;4.10;;;2.75;;
40198;SDS011;25906;43.536;26.068;2023-09-12T03:51:33;5.75;;;2.70;;
40198;SDS011;25906;43.536;26.068;2023-09-12T03:54:19;6.00;;;2.72;;
40198;SDS011;25906;43.536;26.068;2023-09-12T03:57:05;5.28;;;2.20;;
40198;SDS011;25906;43.536;26.068;2023-09-12T03:59:50;6.45;;;2.55;;
40198;SDS011;25906;43.536;26.068;2023-09-12T04:05:21;4.78;;;2.67;;
40198;SDS011;25906;43.536;26.068;2023-09-12T04:08:07;4.35;;;2.70;;
40198;SDS011;25906;43.536;26.068;2023-09-12T04:10:52;9.68;;;2.90;;
40198;SDS011;25906;43.536;26.068;2023-09-12T04:13:38;2.92;;;2.17;;
40198;SDS011;25906;43.536;26.068;2023-09-12T04:16:23;5.25;;;2.92;;
40198;SDS011;25906;43.536;26.068;2023-09-12T04:19:09;6.72;;;2.70;;
40198;SDS011;25906;43.536;26.068;2023-09-12T04:21:54;5.32;;;2.80;;
40198;SDS011;25906;43.536;26.068;2023-09-12T04:24:40;2.72;;;2.53;;
40198;SDS011;25906;43.536;26.068;2023-09-12T04:27:26;4.65;;;2.50;;
40198;SDS011;25906;43.536;26.068;2023-09-12T04:30:11;3.15;;;2.50;;
40198;SDS011;25906;43.536;26.068;2023-09-12T04:35:43;6.80;;;2.53;;
40198;SDS011;25906;43.536;26.068;2023-09-12T04:38:28;3.45;;;3.00;;
40198;SDS011;25906;43.536;26.068;2023-09-12T04:41:14;2.97;;;2.40;;
40198;SDS011;25906;43.536;26.068;2023-09-12T04:44:01;4.97;;;2.80;;
40198;SDS011;25906;43.536;26.068;2023-09-12T04:46:47;2.95;;;2.08;;
40198;SDS011;25906;43.536;26.068;2023-09-12T04:49:33;3.42;;;2.08;;
40198;SDS011;25906;43.536;26.068;2023-09-12T04:52:19;6.32;;;2.60;;
40198;SDS011;25906;43.536;26.068;2023-09-12T04:55:04;4.15;;;2.47;;
40198;SDS011;25906;43.536;26.068;2023-09-12T05:00:35;2.38;;;2.05;;
40198;SDS011;25906;43.536;26.068;2023-09-12T05:03:21;5.28;;;2.40;;
40198;SDS011;25906;43.536;26.068;2023-09-12T05:06:07;6.70;;;2.47;;
40198;SDS011;25906;43.536;26.068;2023-09-12T05:08:53;8.15;;;2.40;;
40198;SDS011;25906;43.536;26.068;2023-09-12T05:11:38;3.33;;;2.33;;
40198;SDS011;25906;43.536;26.068;2023-09-12T05:14:24;5.57;;;2.30;;
40198;SDS011;25906;43.536;26.068;2023-09-12T05:17:09;4.43;;;2.25;;
40198;SDS011;25906;43.536;26.068;2023-09-12T05:19:54;6.10;;;2.15;;
40198;SDS011;25906;43.536;26.068;2023-09-12T05:22:40;3.67;;;2.20;;
40198;SDS011;25906;43.536;26.068;2023-09-12T05:25:25;2.88;;;2.05;;
40198;SDS011;25906;43.536;26.068;2023-09-12T05:28:13;6.75;;;1.77;;
40198;SDS011;25906;43.536;26.068;2023-09-12T05:31:01;7.03;;;1.98;;
40198;SDS011;25906;43.536;26.068;2023-09-12T05:33:46;4.35;;;1.70;;
40198;SDS011;25906;43.536;26.068;2023-09-12T05:36:32;2.72;;;1.80;;
40198;SDS011;25906;43.536;26.068;2023-09-12T05:39:17;2.25;;;1.60;;
40198;SDS011;25906;43.536;26.068;2023-09-12T05:42:03;5.60;;;1.73;;
40198;SDS011;25906;43.536;26.068;2023-09-12T05:44:49;5.97;;;2.10;;
40198;SDS011;25906;43.536;26.068;2023-09-12T05:47:36;4.55;;;1.70;;
40198;SDS011;25906;43.536;26.068;2023-09-12T05:50:21;3.30;;;1.90;;
40198;SDS011;25906;43.536;26.068;2023-09-12T05:53:07;6.25;;;1.70;;
40198;SDS011;25906;43.536;26.068;2023-09-12T05:55:53;3.60;;;1.85;;
40198;SDS011;25906;43.536;26.068;2023-09-12T06:01:27;3.63;;;1.65;;
40198;SDS011;25906;43.536;26.068;2023-09-12T06:04:13;4.18;;;1.80;;
40198;SDS011;25906;43.536;26.068;2023-09-12T06:06:58;4.35;;;1.85;;
40198;SDS011;25906;43.536;26.068;2023-09-12T06:09:46;2.08;;;1.60;;
40198;SDS011;25906;43.536;26.068;2023-09-12T06:12:32;2.83;;;1.65;;
40198;SDS011;25906;43.536;26.068;2023-09-12T06:15:18;2.13;;;1.70;;
40198;SDS011;25906;43.536;26.068;2023-09-12T06:18:03;3.13;;;1.65;;
40198;SDS011;25906;43.536;26.068;2023-09-12T06:23:34;5.32;;;2.10;;
40198;SDS011;25906;43.536;26.068;2023-09-12T06:26:20;4.03;;;1.90;;
40198;SDS011;25906;43.536;26.068;2023-09-12T06:31:51;7.20;;;1.85;;
40198;SDS011;25906;43.536;26.068;2023-09-12T06:34:37;4.60;;;1.60;;
40198;SDS011;25906;43.536;26.068;2023-09-12T06:37:22;5.38;;;1.42;;
40198;SDS011;25906;43.536;26.068;2023-09-12T06:40:08;5.13;;;2.08;;
40198;SDS011;25906;43.536;26.068;2023-09-12T06:42:54;6.07;;;1.85;;
40198;SDS011;25906;43.536;26.068;2023-09-12T06:45:42;4.13;;;1.77;;
40198;SDS011;25906;43.536;26.068;2023-09-12T06:48:28;4.75;;;1.95;;
40198;SDS011;25906;43.536;26.068;2023-09-12T06:51:13;6.50;;;1.80;;
40198;SDS011;25906;43.536;26.068;2023-09-12T06:53:59;6.40;;;1.80;;
40198;SDS011;25906;43.536;26.068;2023-09-12T06:56:45;11.30;;;2.35;;
40198;SDS011;25906;43.536;26.068;2023-09-12T06:59:30;6.15;;;1.75;;
40198;SDS011;25906;43.536;26.068;2023-09-12T07:02:16;10.55;;;2.00;;
40198;SDS011;25906;43.536;26.068;2023-09-12T07:05:03;7.10;;;2.03;;
40198;SDS011;25906;43.536;26.068;2023-09-12T07:07:49;5.13;;;1.70;;
40198;SDS011;25906;43.536;26.068;2023-09-12T07:10:35;11.57;;;2.03;;
40198;SDS011;25906;43.536;26.068;2023-09-12T07:16:06;7.13;;;2.28;;
40198;SDS011;25906;43.536;26.068;2023-09-12T07:18:52;3.85;;;1.60;;
40198;SDS011;25906;43.536;26.068;2023-09-12T07:21:37;10.30;;;1.83;;
40198;SDS011;25906;43.536;26.068;2023-09-12T07:24:26;4.97;;;1.85;;
40198;SDS011;25906;43.536;26.068;2023-09-12T07:27:12;5.03;;;1.90;;
40198;SDS011;25906;43.536;26.068;2023-09-12T07:29:58;5.30;;;1.80;;
40198;SDS011;25906;43.536;26.068;2023-09-12T07:32:43;6.15;;;1.83;;
40198;SDS011;25906;43.536;26.068;2023-09-12T07:38:15;3.97;;;1.75;;
40198;SDS011;25906;43.536;26.068;2023-09-12T07:41:01;4.63;;;2.05;;
40198;SDS011;25906;43.536;26.068;2023-09-12T07:43:56;2.91;;;1.67;;
40198;SDS011;25906;43.536;26.068;2023-09-12T07:46:41;6.53;;;1.70;;
40198;SDS011;25906;43.536;26.068;2023-09-12T07:49:27;2.35;;;1.80;;
40198;SDS011;25906;43.536;26.068;2023-09-12T07:52:12;3.78;;;1.95;;
40198;SDS011;25906;43.536;26.068;2023-09-12T07:55:04;2.70;;;2.10;;
40198;SDS011;25906;43.536;26.068;2023-09-12T07:57:50;6.47;;;1.80;;
40198;SDS011;25906;43.536;26.068;2023-09-12T08:00:36;3.75;;;1.73;;
40198;SDS011;25906;43.536;26.068;2023-09-12T08:03:21;2.67;;;2.03;;
40198;SDS011;25906;43.536;26.068;2023-09-12T08:06:24;4.53;;;2.00;;
40198;SDS011;25906;43.536;26.068;2023-09-12T08:09:10;3.78;;;2.00;;
40198;SDS011;25906;43.536;26.068;2023-09-12T08:11:55;2.92;;;1.67;;
40198;SDS011;25906;43.536;26.068;2023-09-12T08:14:41;6.55;;;1.90;;
40198;SDS011;25906;43.536;26.068;2023-09-12T08:17:26;6.45;;;2.17;;
40198;SDS011;25906;43.536;26.068;2023-09-12T08:20:12;5.95;;;2.40;;
40198;SDS011;25906;43.536;26.068;2023-09-12T08:25:43;5.07;;;2.00;;
40198;SDS011;25906;43.536;26.068;2023-09-12T08:28:29;3.60;;;1.98;;
40198;SDS011;25906;43.536;26.068;2023-09-12T08:31:14;5.20;;;2.05;;
40198;SDS011;25906;43.536;26.068;2023-09-12T08:34:00;4.90;;;1.83;;
40198;SDS011;25906;43.536;26.068;2023-09-12T08:36:45;5.22;;;1.98;;
40198;SDS011;25906;43.536;26.068;2023-09-12T08:39:40;5.20;;;1.58;;
40198;SDS011;25906;43.536;26.068;2023-09-12T08:42:30;4.90;;;2.10;;
40198;SDS011;25906;43.536;26.068;2023-09-12T08:45:17;5.30;;;1.98;;
40198;SDS011;25906;43.536;26.068;2023-09-12T08:48:04;9.05;;;2.10;;
40198;SDS011;25906;43.536;26.068;2023-09-12T08:50:51;7.57;;;2.28;;
40198;SDS011;25906;43.536;26.068;2023-09-12T08:53:38;6.68;;;2.47;;
40198;SDS011;25906;43.536;26.068;2023-09-12T08:59:10;4.88;;;2.50;;
40198;SDS011;25906;43.536;26.068;2023-09-12T09:01:56;3.50;;;1.80;;
40198;SDS011;25906;43.536;26.068;2023-09-12T09:04:43;6.15;;;1.88;;
40198;SDS011;25906;43.536;26.068;2023-09-12T09:07:32;4.53;;;2.17;;
40198;SDS011;25906;43.536;26.068;2023-09-12T09:10:21;7.35;;;2.33;;
40198;SDS011;25906;43.536;26.068;2023-09-12T09:13:08;3.92;;;1.90;;
40198;SDS011;25906;43.536;26.068;2023-09-12T09:19:03;9.32;;;2.35;;
40198;SDS011;25906;43.536;26.068;2023-09-12T09:21:55;4.90;;;2.22;;
40198;SDS011;25906;43.536;26.068;2023-09-12T09:24:50;7.57;;;2.38;;
40198;SDS011;25906;43.536;26.068;2023-09-12T09:27:54;5.13;;;2.10;;
40198;SDS011;25906;43.536;26.068;2023-09-12T09:30:40;4.30;;;2.60;;
40198;SDS011;25906;43.536;26.068;2023-09-12T09:33:34;5.93;;;2.42;;
40198;SDS011;25906;43.536;26.068;2023-09-12T09:36:20;3.88;;;2.53;;
40198;SDS011;25906;43.536;26.068;2023-09-12T09:39:06;5.65;;;2.38;;
40198;SDS011;25906;43.536;26.068;2023-09-12T09:41:53;7.03;;;2.70;;
40198;SDS011;25906;43.536;26.068;2023-09-12T09:44:39;5.65;;;2.70;;
40198;SDS011;25906;43.536;26.068;2023-09-12T09:50:13;4.63;;;3.28;;
40198;SDS011;25906;43.536;26.068;2023-09-12T09:53:00;4.18;;;2.50;;
40198;SDS011;25906;43.536;26.068;2023-09-12T09:55:46;12.25;;;2.83;;
40198;SDS011;25906;43.536;26.068;2023-09-12T09:58:32;7.07;;;2.85;;
40198;SDS011;25906;43.536;26.068;2023-09-12T10:01:28;7.90;;;2.47;;
40198;SDS011;25906;43.536;26.068;2023-09-12T10:04:15;8.88;;;2.30;;
40198;SDS011;25906;43.536;26.068;2023-09-12T10:07:01;6.32;;;2.50;;
40198;SDS011;25906;43.536;26.068;2023-09-12T10:09:47;4.43;;;2.80;;
40198;SDS011;25906;43.536;26.068;2023-09-12T10:15:03;4.75;;;3.03;;
40198;SDS011;25906;43.536;26.068;2023-09-12T10:17:35;4.63;;;3.03;;
40198;SDS011;25906;43.536;26.068;2023-09-12T10:20:24;8.15;;;3.08;;
40198;SDS011;25906;43.536;26.068;2023-09-12T10:26:21;6.32;;;3.65;;
40198;SDS011;25906;43.536;26.068;2023-09-12T10:29:08;6.00;;;2.50;;
40198;SDS011;25906;43.536;26.068;2023-09-12T10:31:55;11.73;;;3.05;;
40198;SDS011;25906;43.536;26.068;2023-09-12T10:34:41;3.22;;;2.50;;
40198;SDS011;25906;43.536;26.068;2023-09-12T10:37:30;4.07;;;3.03;;
40198;SDS011;25906;43.536;26.068;2023-09-12T10:40:18;5.60;;;2.60;;
40198;SDS011;25906;43.536;26.068;2023-09-12T10:43:04;4.40;;;3.15;;
40198;SDS011;25906;43.536;26.068;2023-09-12T10:45:50;8.07;;;2.58;;
40198;SDS011;25906;43.536;26.068;2023-09-12T10:48:37;9.10;;;3.35;;
40198;SDS011;25906;43.536;26.068;2023-09-12T10:51:25;15.35;;;3.08;;
40198;SDS011;25906;43.536;26.068;2023-09-12T10:57:03;3.92;;;2.25;;
40198;SDS011;25906;43.536;26.068;2023-09-12T11:02:44;5.53;;;3.00;;
40198;SDS011;25906;43.536;26.068;2023-09-12T11:08:17;8.80;;;3.35;;
40198;SDS011;25906;43.536;26.068;2023-09-12T11:11:18;8.35;;;2.58;;
40198;SDS011;25906;43.536;26.068;2023-09-12T11:14:06;10.50;;;3.08;;
40198;SDS011;25906;43.536;26.068;2023-09-12T11:19:52;5.78;;;3.10;;
40198;SDS011;25906;43.536;26.068;2023-09-12T11:22:39;7.65;;;3.00;;
40198;SDS011;25906;43.536;26.068;2023-09-12T11:25:26;4.90;;;2.70;;
40198;SDS011;25906;43.536;26.068;2023-09-12T11:28:11;5.15;;;2.50;;
40198;SDS011;25906;43.536;26.068;2023-09-12T11:30:57;6.80;;;2.58;;
40198;SDS011;25906;43.536;26.068;2023-09-12T11:33:43;4.40;;;2.70;;
40198;SDS011;25906;43.536;26.068;2023-09-12T11:36:29;5.32;;;2.50;;
40198;SDS011;25906;43.536;26.068;2023-09-12T11:42:10;6.55;;;2.83;;
40198;SDS011;25906;43.536;26.068;2023-09-12T11:44:58;7.85;;;2.67;;
40198;SDS011;25906;43.536;26.068;2023-09-12T11:47:44;5.68;;;2.78;;
40198;SDS011;25906;43.536;26.068;2023-09-12T11:50:31;8.10;;;3.05;;
40198;SDS011;25906;43.536;26.068;2023-09-12T11:53:19;5.82;;;2.65;;
40198;SDS011;25906;43.536;26.068;2023-09-12T11:56:07;4.20;;;2.92;;
40198;SDS011;25906;43.536;26.068;2023-09-12T12:01:40;5.93;;;2.78;;
40198;SDS011;25906;43.536;26.068;2023-09-12T12:04:26;6.10;;;2.90;;
40198;SDS011;25906;43.536;26.068;2023-09-12T12:09:57;7.63;;;2.90;;
40198;SDS011;25906;43.536;26.068;2023-09-12T12:12:44;6.30;;;2.92;;
40198;SDS011;25906;43.536;26.068;2023-09-12T12:15:33;8.05;;;2.50;;
40198;SDS011;25906;43.536;26.068;2023-09-12T12:21:04;7.20;;;2.97;;
40198;SDS011;25906;43.536;26.068;2023-09-12T12:23:57;7.33;;;2.93;;
40198;SDS011;25906;43.536;26.068;2023-09-12T12:26:43;18.15;;;3.10;;
40198;SDS011;25906;43.536;26.068;2023-09-12T12:32:15;7.65;;;3.35;;
40198;SDS011;25906;43.536;26.068;2023-09-12T12:35:01;6.13;;;2.70;;
40198;SDS011;25906;43.536;26.068;2023-09-12T12:37:48;7.45;;;2.78;;
40198;SDS011;25906;43.536;26.068;2023-09-12T12:40:37;4.82;;;2.47;;
40198;SDS011;25906;43.536;26.068;2023-09-12T12:43:25;9.52;;;2.72;;
40198;SDS011;25906;43.536;26.068;2023-09-12T12:46:12;9.02;;;2.60;;
40198;SDS011;25906;43.536;26.068;2023-09-12T12:48:57;7.90;;;3.08;;
40198;SDS011;25906;43.536;26.068;2023-09-12T12:54:31;10.27;;;3.03;;
40198;SDS011;25906;43.536;26.068;2023-09-12T12:57:18;7.20;;;3.60;;
40198;SDS011;25906;43.536;26.068;2023-09-12T13:00:08;6.93;;;2.70;;
40198;SDS011;25906;43.536;26.068;2023-09-12T13:02:58;4.65;;;2.80;;
40198;SDS011;25906;43.536;26.068;2023-09-12T13:08:30;5.60;;;2.85;;
40198;SDS011;25906;43.536;26.068;2023-09-12T13:14:01;5.22;;;3.13;;
40198;SDS011;25906;43.536;26.068;2023-09-12T13:16:53;6.20;;;3.08;;
40198;SDS011;25906;43.536;26.068;2023-09-12T13:22:24;8.60;;;3.20;;
40198;SDS011;25906;43.536;26.068;2023-09-12T13:25:10;6.97;;;2.83;;
40198;SDS011;25906;43.536;26.068;2023-09-12T13:27:56;5.60;;;3.17;;
40198;SDS011;25906;43.536;26.068;2023-09-12T13:33:26;7.95;;;3.15;;
40198;SDS011;25906;43.536;26.068;2023-09-12T13:36:12;4.43;;;2.63;;
40198;SDS011;25906;43.536;26.068;2023-09-12T13:38:59;6.72;;;3.03;;
40198;SDS011;25906;43.536;26.068;2023-09-12T13:44:32;7.53;;;2.63;;
40198;SDS011;25906;43.536;26.068;2023-09-12T13:47:17;4.53;;;2.88;;
40198;SDS011;25906;43.536;26.068;2023-09-12T13:50:07;8.75;;;2.95;;
40198;SDS011;25906;43.536;26.068;2023-09-12T13:52:53;8.82;;;2.80;;
40198;SDS011;25906;43.536;26.068;2023-09-12T13:55:40;6.55;;;3.05;;
40198;SDS011;25906;43.536;26.068;2023-09-12T13:58:25;9.80;;;3.35;;
40198;SDS011;25906;43.536;26.068;2023-09-12T14:03:56;6.55;;;3.50;;
40198;SDS011;25906;43.536;26.068;2023-09-12T14:09:27;10.75;;;3.17;;
40198;SDS011;25906;43.536;26.068;2023-09-12T14:12:13;6.65;;;2.88;;
40198;SDS011;25906;43.536;26.068;2023-09-12T14:14:59;7.03;;;2.67;;
40198;SDS011;25906;43.536;26.068;2023-09-12T14:17:44;7.55;;;2.80;;
40198;SDS011;25906;43.536;26.068;2023-09-12T14:20:29;6.68;;;2.78;;
40198;SDS011;25906;43.536;26.068;2023-09-12T14:26:01;5.75;;;2.78;;
40198;SDS011;25906;43.536;26.068;2023-09-12T14:31:32;5.03;;;2.90;;
40198;SDS011;25906;43.536;26.068;2023-09-12T14:37:03;8.82;;;3.25;;
40198;SDS011;25906;43.536;26.068;2023-09-12T14:39:48;7.97;;;3.10;;
40198;SDS011;25906;43.536;26.068;2023-09-12T14:45:19;8.02;;;3.95;;
40198;SDS011;25906;43.536;26.068;2023-09-12T14:48:05;4.93;;;3.17;;
40198;SDS011;25906;43.536;26.068;2023-09-12T14:50:52;11.32;;;3.10;;
40198;SDS011;25906;43.536;26.068;2023-09-12T14:53:37;10.25;;;3.17;;
40198;SDS011;25906;43.536;26.068;2023-09-12T14:56:29;8.35;;;3.08;;
40198;SDS011;25906;43.536;26.068;2023-09-12T14:59:15;6.65;;;3.35;;
40198;SDS011;25906;43.536;26.068;2023-09-12T15:02:01;6.60;;;3.17;;
40198;SDS011;25906;43.536;26.068;2023-09-12T15:04:47;7.68;;;3.00;;
40198;SDS011;25906;43.536;26.068;2023-09-12T15:07:32;6.07;;;3.20;;
40198;SDS011;25906;43.536;26.068;2023-09-12T15:10:19;7.07;;;2.97;;
40198;SDS011;25906;43.536;26.068;2023-09-12T15:13:05;10.38;;;3.30;;
40198;SDS011;25906;43.536;26.068;2023-09-12T15:15:50;8.50;;;3.53;;
40198;SDS011;25906;43.536;26.068;2023-09-12T15:18:36;8.63;;;2.95;;
40198;SDS011;25906;43.536;26.068;2023-09-12T15:21:23;5.43;;;3.10;;
40198;SDS011;25906;43.536;26.068;2023-09-12T15:26:53;15.98;;;3.15;;
40198;SDS011;25906;43.536;26.068;2023-09-12T15:32:24;8.00;;;3.53;;
40198;SDS011;25906;43.536;26.068;2023-09-12T15:35:10;11.52;;;3.72;;
40198;SDS011;25906;43.536;26.068;2023-09-12T15:37:55;6.28;;;3.50;;
40198;SDS011;25906;43.536;26.068;2023-09-12T15:43:26;12.13;;;3.08;;
40198;SDS011;25906;43.536;26.068;2023-09-12T15:46:12;6.18;;;3.45;;
40198;SDS011;25906;43.536;26.068;2023-09-12T15:48:57;8.93;;;3.72;;
40198;SDS011;25906;43.536;26.068;2023-09-12T15:51:43;13.48;;;3.88;;
40198;SDS011;25906;43.536;26.068;2023-09-12T15:57:15;8.45;;;3.70;;
40198;SDS011;25906;43.536;26.068;2023-09-12T16:00:00;9.80;;;3.33;;
40198;SDS011;25906;43.536;26.068;2023-09-12T16:02:51;8.10;;;3.40;;
40198;SDS011;25906;43.536;26.068;2023-09-12T16:05:38;7.35;;;3.67;;
40198;SDS011;25906;43.536;26.068;2023-09-12T16:08:24;7.43;;;3.42;;
40198;SDS011;25906;43.536;26.068;2023-09-12T16:11:09;8.65;;;3.30;;
40198;SDS011;25906;43.536;26.068;2023-09-12T16:16:40;11.00;;;3.67;;
40198;SDS011;25906;43.536;26.068;2023-09-12T16:19:26;8.45;;;3.42;;
40198;SDS011;25906;43.536;26.068;2023-09-12T16:22:12;9.45;;;3.83;;
40198;SDS011;25906;43.536;26.068;2023-09-12T16:27:43;7.25;;;4.22;;
40198;SDS011;25906;43.536;26.068;2023-09-12T16:33:13;7.10;;;3.50;;
40198;SDS011;25906;43.536;26.068;2023-09-12T16:38:45;12.00;;;7.05;;
40198;SDS011;25906;43.536;26.068;2023-09-12T16:41:31;18.73;;;8.63;;
40198;SDS011;25906;43.536;26.068;2023-09-12T16:44:18;12.00;;;5.45;;
40198;SDS011;25906;43.536;26.068;2023-09-12T16:47:03;24.20;;;10.27;;
40198;SDS011;25906;43.536;26.068;2023-09-12T16:49:51;24.50;;;8.80;;
40198;SDS011;25906;43.536;26.068;2023-09-12T16:52:36;12.77;;;4.50;;
40198;SDS011;25906;43.536;26.068;2023-09-12T16:55:21;7.65;;;3.47;;
40198;SDS011;25906;43.536;26.068;2023-09-12T16:58:10;5.47;;;3.13;;
40198;SDS011;25906;43.536;26.068;2023-09-12T17:00:55;14.25;;;3.45;;
40198;SDS011;25906;43.536;26.068;2023-09-12T17:03:42;10.60;;;3.63;;
40198;SDS011;25906;43.536;26.068;2023-09-12T17:06:29;10.50;;;3.53;;
40198;SDS011;25906;43.536;26.068;2023-09-12T17:09:15;10.05;;;3.35;;
40198;SDS011;25906;43.536;26.068;2023-09-12T17:12:01;11.38;;;3.88;;
40198;SDS011;25906;43.536;26.068;2023-09-12T17:14:46;8.48;;;3.75;;
40198;SDS011;25906;43.536;26.068;2023-09-12T17:17:31;7.72;;;3.53;;
40198;SDS011;25906;43.536;26.068;2023-09-12T17:20:17;6.82;;;3.15;;
40198;SDS011;25906;43.536;26.068;2023-09-12T17:23:03;11.07;;;3.65;;
40198;SDS011;25906;43.536;26.068;2023-09-12T17:28:34;9.90;;;3.40;;
40198;SDS011;25906;43.536;26.068;2023-09-12T17:31:19;14.98;;;3.55;;
40198;SDS011;25906;43.536;26.068;2023-09-12T17:34:05;5.88;;;3.03;;
40198;SDS011;25906;43.536;26.068;2023-09-12T17:36:52;8.48;;;3.38;;
40198;SDS011;25906;43.536;26.068;2023-09-12T17:39:38;10.43;;;3.47;;
40198;SDS011;25906;43.536;26.068;2023-09-12T17:45:09;8.93;;;3.67;;
40198;SDS011;25906;43.536;26.068;2023-09-12T17:47:55;8.93;;;3.60;;
40198;SDS011;25906;43.536;26.068;2023-09-12T17:50:41;5.55;;;3.10;;
40198;SDS011;25906;43.536;26.068;2023-09-12T17:53:26;8.95;;;3.85;;
40198;SDS011;25906;43.536;26.068;2023-09-12T17:56:12;7.30;;;3.53;;
40198;SDS011;25906;43.536;26.068;2023-09-12T17:59:00;13.80;;;4.20;;
40198;SDS011;25906;43.536;26.068;2023-09-12T18:01:45;5.43;;;3.28;;
40198;SDS011;25906;43.536;26.068;2023-09-12T18:04:32;12.55;;;3.40;;
40198;SDS011;25906;43.536;26.068;2023-09-12T18:07:18;8.38;;;3.42;;
40198;SDS011;25906;43.536;26.068;2023-09-12T18:10:05;7.50;;;3.50;;
40198;SDS011;25906;43.536;26.068;2023-09-12T18:12:52;10.00;;;4.25;;
40198;SDS011;25906;43.536;26.068;2023-09-12T18:18:22;11.05;;;3.63;;
40198;SDS011;25906;43.536;26.068;2023-09-12T18:21:08;10.68;;;3.65;;
40198;SDS011;25906;43.536;26.068;2023-09-12T18:26:40;9.13;;;3.30;;
40198;SDS011;25906;43.536;26.068;2023-09-12T18:29:25;7.65;;;3.13;;
40198;SDS011;25906;43.536;26.068;2023-09-12T18:32:11;5.28;;;2.97;;
40198;SDS011;25906;43.536;26.068;2023-09-12T18:34:56;12.13;;;3.85;;
40198;SDS011;25906;43.536;26.068;2023-09-12T18:37:44;11.63;;;3.75;;
40198;SDS011;25906;43.536;26.068;2023-09-12T18:40:30;10.70;;;2.80;;
40198;SDS011;25906;43.536;26.068;2023-09-12T18:43:15;11.15;;;2.38;;